sensor_id;sensor_type;location;lat;lon;timestamp;P1;durP1;ratioP1;P2;durP2;ratioP2
2053;SDS011;1032;52.542;13.440;2022-09-06T00:00:27;4.07;;;2.00;;
2053;SDS011;1032;52.542;13.440;2022-09-06T00:02:56;2.97;;;1.50;;
2053;SDS011;1032;52.542;13.440;2022-09-06T00:05:22;5.10;;;1.50;;
2053;SDS011;1032;52.542;13.440;2022-09-06T00:07:49;2.13;;;1.93;;
2053;SDS011;1032;52.542;13.440;2022-09-06T00:10:16;4.43;;;1.57;;
2053;SDS011;1032;52.542;13.440;2022-09-06T00:12:42;2.60;;;1.60;;
2053;SDS011;1032;52.542;13.440;2022-09-06T00:15:09;3.37;;;1.47;;
2053;SDS011;1032;52.542;13.440;2022-09-06T00:17:36;3.40;;;1.10;;
2053;SDS011;1032;52.542;13.440;2022-09-06T00:20:05;3.50;;;1.60;;
2053;SDS011;1032;52.542;13.440;2022-09-06T00:22:33;2.27;;;1.50;;
2053;SDS011;1032;52.542;13.440;2022-09-06T00:25:00;2.50;;;1.50;;
2053;SDS011;1032;52.542;13.440;2022-09-06T00:27:27;4.00;;;1.53;;
2053;SDS011;1032;52.542;13.440;2022-09-06T00:29:54;4.73;;;1.60;;
2053;SDS011;1032;52.542;13.440;2022-09-06T00:32:20;2.40;;;1.80;;
2053;SDS011;1032;52.542;13.440;2022-09-06T00:34:47;3.00;;;1.40;;
2053;SDS011;1032;52.542;13.440;2022-09-06T00:37:15;2.47;;;1.67;;
2053;SDS011;1032;52.542;13.440;2022-09-06T00:39:41;2.37;;;1.40;;
2053;SDS011;1032;52.542;13.440;2022-09-06T00:42:08;2.50;;;1.33;;
2053;SDS011;1032;52.542;13.440;2022-09-06T00:44:36;2.60;;;1.50;;
2053;SDS011;1032;52.542;13.440;2022-09-06T00:47:02;3.50;;;1.20;;
2053;SDS011;1032;52.542;13.440;2022-09-06T00:49:31;7.10;;;1.53;;
2053;SDS011;1032;52.542;13.440;2022-09-06T00:52:04;2.93;;;1.40;;
2053;SDS011;1032;52.542;13.440;2022-09-06T00:54:34;2.50;;;1.47;;
2053;SDS011;1032;52.542;13.440;2022-09-06T00:57:01;2.80;;;1.53;;
2053;SDS011;1032;52.542;13.440;2022-09-06T00:59:30;2.40;;;1.57;;
2053;SDS011;1032;52.542;13.440;2022-09-06T01:01:59;2.93;;;1.30;;
2053;SDS011;1032;52.542;13.440;2022-09-06T01:04:26;2.87;;;1.70;;
2053;SDS011;1032;52.542;13.440;2022-09-06T01:06:56;3.43;;;1.30;;
2053;SDS011;1032;52.542;13.440;2022-09-06T01:09:33;5.10;;;1.13;;
2053;SDS011;1032;52.542;13.440;2022-09-06T01:12:15;1.80;;;1.20;;
2053;SDS011;1032;52.542;13.440;2022-09-06T01:14:55;2.70;;;1.20;;
2053;SDS011;1032;52.542;13.440;2022-09-06T01:17:32;4.83;;;1.30;;
2053;SDS011;1032;52.542;13.440;2022-09-06T01:20:20;6.53;;;1.33;;
2053;SDS011;1032;52.542;13.440;2022-09-06T01:23:09;3.23;;;1.67;;
2053;SDS011;1032;52.542;13.440;2022-09-06T01:25:56;4.33;;;1.40;;
2053;SDS011;1032;52.542;13.440;2022-09-06T01:28:31;2.37;;;1.20;;
2053;SDS011;1032;52.542;13.440;2022-09-06T01:31:06;2.37;;;1.23;;
2053;SDS011;1032;52.542;13.440;2022-09-06T01:33:45;2.80;;;1.10;;
2053;SDS011;1032;52.542;13.440;2022-09-06T01:36:19;3.47;;;1.37;;
2053;SDS011;1032;52.542;13.440;2022-09-06T01:38:48;3.70;;;1.40;;
2053;SDS011;1032;52.542;13.440;2022-09-06T01:41:15;5.87;;;1.30;;
2053;SDS011;1032;52.542;13.440;2022-09-06T01:43:44;2.20;;;1.10;;
2053;SDS011;1032;52.542;13.440;2022-09-06T01:46:14;2.27;;;1.30;;
2053;SDS011;1032;52.542;13.440;2022-09-06T01:48:49;4.93;;;1.37;;
2053;SDS011;1032;52.542;13.440;2022-09-06T01:51:28;2.50;;;1.23;;
2053;SDS011;1032;52.542;13.440;2022-09-06T01:54:00;5.67;;;1.33;;
2053;SDS011;1032;52.542;13.440;2022-09-06T01:56:42;2.23;;;1.60;;
2053;SDS011;1032;52.542;13.440;2022-09-06T01:59:31;3.07;;;2.07;;
2053;SDS011;1032;52.542;13.440;2022-09-06T02:02:09;3.50;;;1.80;;
2053;SDS011;1032;52.542;13.440;2022-09-06T02:04:42;8.00;;;1.70;;
2053;SDS011;1032;52.542;13.440;2022-09-06T02:07:12;5.90;;;1.60;;
2053;SDS011;1032;52.542;13.440;2022-09-06T02:09:45;2.57;;;1.20;;
2053;SDS011;1032;52.542;13.440;2022-09-06T02:12:17;2.70;;;1.30;;
2053;SDS011;1032;52.542;13.440;2022-09-06T02:14:47;2.43;;;1.50;;
2053;SDS011;1032;52.542;13.440;2022-09-06T02:17:18;3.10;;;1.30;;
2053;SDS011;1032;52.542;13.440;2022-09-06T02:19:49;3.60;;;1.43;;
2053;SDS011;1032;52.542;13.440;2022-09-06T02:22:20;2.10;;;1.20;;
2053;SDS011;1032;52.542;13.440;2022-09-06T02:24:50;2.60;;;1.30;;
2053;SDS011;1032;52.542;13.440;2022-09-06T02:27:18;4.43;;;1.67;;
2053;SDS011;1032;52.542;13.440;2022-09-06T02:29:46;2.60;;;1.40;;
2053;SDS011;1032;52.542;13.440;2022-09-06T02:32:14;3.40;;;1.27;;
2053;SDS011;1032;52.542;13.440;2022-09-06T02:34:44;4.37;;;1.67;;
2053;SDS011;1032;52.542;13.440;2022-09-06T02:37:11;2.10;;;1.40;;
2053;SDS011;1032;52.542;13.440;2022-09-06T02:39:38;5.03;;;1.50;;
2053;SDS011;1032;52.542;13.440;2022-09-06T02:42:05;2.97;;;1.40;;
2053;SDS011;1032;52.542;13.440;2022-09-06T02:44:35;4.80;;;1.80;;
2053;SDS011;1032;52.542;13.440;2022-09-06T02:47:03;2.17;;;1.43;;
2053;SDS011;1032;52.542;13.440;2022-09-06T02:49:30;4.93;;;1.60;;
2053;SDS011;1032;52.542;13.440;2022-09-06T02:51:57;6.20;;;1.77;;
2053;SDS011;1032;52.542;13.440;2022-09-06T02:54:24;3.37;;;1.40;;
2053;SDS011;1032;52.542;13.440;2022-09-06T02:56:50;2.53;;;1.90;;
2053;SDS011;1032;52.542;13.440;2022-09-06T02:59:17;3.10;;;1.60;;
2053;SDS011;1032;52.542;13.440;2022-09-06T03:01:43;2.83;;;1.60;;
2053;SDS011;1032;52.542;13.440;2022-09-06T03:04:11;2.70;;;1.50;;
2053;SDS011;1032;52.542;13.440;2022-09-06T03:06:38;3.63;;;1.47;;
2053;SDS011;1032;52.542;13.440;2022-09-06T03:09:05;2.57;;;1.47;;
2053;SDS011;1032;52.542;13.440;2022-09-06T03:11:34;3.60;;;1.27;;
2053;SDS011;1032;52.542;13.440;2022-09-06T03:14:01;5.17;;;1.60;;
2053;SDS011;1032;52.542;13.440;2022-09-06T03:16:27;2.97;;;1.60;;
2053;SDS011;1032;52.542;13.440;2022-09-06T03:18:54;2.77;;;1.30;;
2053;SDS011;1032;52.542;13.440;2022-09-06T03:21:22;2.00;;;1.40;;
2053;SDS011;1032;52.542;13.440;2022-09-06T03:23:49;2.30;;;1.40;;
2053;SDS011;1032;52.542;13.440;2022-09-06T03:26:16;3.00;;;1.80;;
2053;SDS011;1032;52.542;13.440;2022-09-06T03:28:43;5.23;;;1.93;;
2053;SDS011;1032;52.542;13.440;2022-09-06T03:31:09;2.63;;;1.40;;
2053;SDS011;1032;52.542;13.440;2022-09-06T03:33:36;6.03;;;2.13;;
2053;SDS011;1032;52.542;13.440;2022-09-06T03:36:03;5.63;;;1.60;;
2053;SDS011;1032;52.542;13.440;2022-09-06T03:38:31;4.10;;;1.67;;
2053;SDS011;1032;52.542;13.440;2022-09-06T03:40:58;2.80;;;1.60;;
2053;SDS011;1032;52.542;13.440;2022-09-06T03:43:25;1.90;;;1.50;;
2053;SDS011;1032;52.542;13.440;2022-09-06T03:45:52;3.63;;;1.53;;
2053;SDS011;1032;52.542;13.440;2022-09-06T03:48:21;6.03;;;2.00;;
2053;SDS011;1032;52.542;13.440;2022-09-06T03:50:50;1.73;;;1.50;;
2053;SDS011;1032;52.542;13.440;2022-09-06T03:53:19;7.90;;;1.47;;
2053;SDS011;1032;52.542;13.440;2022-09-06T03:55:48;3.90;;;1.77;;
2053;SDS011;1032;52.542;13.440;2022-09-06T03:58:17;3.90;;;1.70;;
2053;SDS011;1032;52.542;13.440;2022-09-06T04:00:44;3.23;;;1.60;;
2053;SDS011;1032;52.542;13.440;2022-09-06T04:03:11;3.00;;;1.37;;
2053;SDS011;1032;52.542;13.440;2022-09-06T04:05:38;5.37;;;1.87;;
2053;SDS011;1032;52.542;13.440;2022-09-06T04:08:05;2.80;;;1.70;;
2053;SDS011;1032;52.542;13.440;2022-09-06T04:10:31;3.80;;;1.60;;
2053;SDS011;1032;52.542;13.440;2022-09-06T04:13:00;2.73;;;1.47;;
2053;SDS011;1032;52.542;13.440;2022-09-06T04:15:26;2.47;;;2.07;;
2053;SDS011;1032;52.542;13.440;2022-09-06T04:17:53;3.50;;;1.80;;
2053;SDS011;1032;52.542;13.440;2022-09-06T04:20:19;4.80;;;2.23;;
2053;SDS011;1032;52.542;13.440;2022-09-06T04:22:46;4.70;;;1.90;;
2053;SDS011;1032;52.542;13.440;2022-09-06T04:25:12;3.20;;;1.30;;
2053;SDS011;1032;52.542;13.440;2022-09-06T04:27:39;5.00;;;1.80;;
2053;SDS011;1032;52.542;13.440;2022-09-06T04:30:08;3.37;;;1.67;;
2053;SDS011;1032;52.542;13.440;2022-09-06T04:32:35;2.83;;;2.07;;
2053;SDS011;1032;52.542;13.440;2022-09-06T04:35:01;4.27;;;2.20;;
2053;SDS011;1032;52.542;13.440;2022-09-06T04:37:28;4.80;;;2.27;;
2053;SDS011;1032;52.542;13.440;2022-09-06T04:39:55;4.83;;;1.90;;
2053;SDS011;1032;52.542;13.440;2022-09-06T04:42:21;3.60;;;1.63;;
2053;SDS011;1032;52.542;13.440;2022-09-06T04:44:48;5.37;;;1.80;;
2053;SDS011;1032;52.542;13.440;2022-09-06T04:47:16;4.47;;;2.10;;
2053;SDS011;1032;52.542;13.440;2022-09-06T04:49:43;6.17;;;1.90;;
2053;SDS011;1032;52.542;13.440;2022-09-06T04:52:10;6.23;;;2.30;;
2053;SDS011;1032;52.542;13.440;2022-09-06T04:54:37;5.40;;;2.10;;
2053;SDS011;1032;52.542;13.440;2022-09-06T04:57:04;4.30;;;1.80;;
2053;SDS011;1032;52.542;13.440;2022-09-06T04:59:31;3.00;;;1.83;;
2053;SDS011;1032;52.542;13.440;2022-09-06T05:01:57;5.53;;;1.83;;
2053;SDS011;1032;52.542;13.440;2022-09-06T05:04:25;2.50;;;1.60;;
2053;SDS011;1032;52.542;13.440;2022-09-06T05:06:58;2.37;;;1.57;;
2053;SDS011;1032;52.542;13.440;2022-09-06T05:09:26;8.80;;;2.00;;
2053;SDS011;1032;52.542;13.440;2022-09-06T05:11:52;4.63;;;1.90;;
2053;SDS011;1032;52.542;13.440;2022-09-06T05:14:20;6.63;;;2.20;;
2053;SDS011;1032;52.542;13.440;2022-09-06T05:16:46;3.73;;;2.40;;
2053;SDS011;1032;52.542;13.440;2022-09-06T05:19:14;4.20;;;2.33;;
2053;SDS011;1032;52.542;13.440;2022-09-06T05:21:42;6.10;;;1.80;;
2053;SDS011;1032;52.542;13.440;2022-09-06T05:24:08;2.67;;;1.50;;
2053;SDS011;1032;52.542;13.440;2022-09-06T05:26:35;3.80;;;1.90;;
2053;SDS011;1032;52.542;13.440;2022-09-06T05:29:02;5.13;;;2.23;;
2053;SDS011;1032;52.542;13.440;2022-09-06T05:31:29;4.73;;;2.03;;
2053;SDS011;1032;52.542;13.440;2022-09-06T05:33:57;3.10;;;1.60;;
2053;SDS011;1032;52.542;13.440;2022-09-06T05:36:24;4.93;;;2.20;;
2053;SDS011;1032;52.542;13.440;2022-09-06T05:38:53;5.63;;;1.93;;
2053;SDS011;1032;52.542;13.440;2022-09-06T05:41:21;4.70;;;2.00;;
2053;SDS011;1032;52.542;13.440;2022-09-06T05:43:48;5.30;;;2.27;;
2053;SDS011;1032;52.542;13.440;2022-09-06T05:46:15;2.90;;;1.93;;
2053;SDS011;1032;52.542;13.440;2022-09-06T05:48:42;6.17;;;1.90;;
2053;SDS011;1032;52.542;13.440;2022-09-06T05:51:10;8.40;;;2.37;;
2053;SDS011;1032;52.542;13.440;2022-09-06T05:53:39;3.30;;;1.80;;
2053;SDS011;1032;52.542;13.440;2022-09-06T05:56:08;4.87;;;2.00;;
2053;SDS011;1032;52.542;13.440;2022-09-06T05:58:36;4.47;;;1.70;;
2053;SDS011;1032;52.542;13.440;2022-09-06T06:01:03;3.90;;;1.80;;
2053;SDS011;1032;52.542;13.440;2022-09-06T06:03:31;6.47;;;1.90;;
2053;SDS011;1032;52.542;13.440;2022-09-06T06:05:58;2.77;;;1.90;;
2053;SDS011;1032;52.542;13.440;2022-09-06T06:08:24;5.77;;;1.87;;
2053;SDS011;1032;52.542;13.440;2022-09-06T06:10:51;3.37;;;1.90;;
2053;SDS011;1032;52.542;13.440;2022-09-06T06:13:19;5.20;;;2.03;;
2053;SDS011;1032;52.542;13.440;2022-09-06T06:15:46;2.63;;;1.67;;
2053;SDS011;1032;52.542;13.440;2022-09-06T06:18:12;6.23;;;2.03;;
2053;SDS011;1032;52.542;13.440;2022-09-06T06:20:39;5.73;;;1.83;;
2053;SDS011;1032;52.542;13.440;2022-09-06T06:23:06;2.90;;;2.13;;
2053;SDS011;1032;52.542;13.440;2022-09-06T06:25:32;6.30;;;1.60;;
2053;SDS011;1032;52.542;13.440;2022-09-06T06:27:59;4.77;;;1.93;;
2053;SDS011;1032;52.542;13.440;2022-09-06T06:30:27;4.23;;;2.03;;
2053;SDS011;1032;52.542;13.440;2022-09-06T06:32:53;3.80;;;1.80;;
2053;SDS011;1032;52.542;13.440;2022-09-06T06:35:22;5.73;;;1.80;;
2053;SDS011;1032;52.542;13.440;2022-09-06T06:37:49;4.90;;;1.87;;
2053;SDS011;1032;52.542;13.440;2022-09-06T06:40:15;2.80;;;1.77;;
2053;SDS011;1032;52.542;13.440;2022-09-06T06:42:42;4.60;;;1.83;;
2053;SDS011;1032;52.542;13.440;2022-09-06T06:45:09;2.97;;;1.90;;
2053;SDS011;1032;52.542;13.440;2022-09-06T06:47:37;4.13;;;1.93;;
2053;SDS011;1032;52.542;13.440;2022-09-06T06:50:05;12.27;;;2.07;;
2053;SDS011;1032;52.542;13.440;2022-09-06T06:52:31;7.30;;;2.23;;
2053;SDS011;1032;52.542;13.440;2022-09-06T06:54:58;3.90;;;1.80;;
2053;SDS011;1032;52.542;13.440;2022-09-06T06:57:25;2.60;;;1.73;;
2053;SDS011;1032;52.542;13.440;2022-09-06T06:59:51;6.77;;;2.30;;
2053;SDS011;1032;52.542;13.440;2022-09-06T07:02:18;4.77;;;1.97;;
2053;SDS011;1032;52.542;13.440;2022-09-06T07:04:46;4.63;;;1.60;;
2053;SDS011;1032;52.542;13.440;2022-09-06T07:07:12;5.40;;;2.33;;
2053;SDS011;1032;52.542;13.440;2022-09-06T07:09:40;5.03;;;1.80;;
2053;SDS011;1032;52.542;13.440;2022-09-06T07:12:06;3.33;;;1.80;;
2053;SDS011;1032;52.542;13.440;2022-09-06T07:14:33;5.93;;;2.13;;
2053;SDS011;1032;52.542;13.440;2022-09-06T07:17:00;4.50;;;3.13;;
2053;SDS011;1032;52.542;13.440;2022-09-06T07:19:27;5.10;;;2.27;;
2053;SDS011;1032;52.542;13.440;2022-09-06T07:21:55;7.23;;;2.97;;
2053;SDS011;1032;52.542;13.440;2022-09-06T07:24:22;6.87;;;2.37;;
2053;SDS011;1032;52.542;13.440;2022-09-06T07:26:49;4.33;;;2.00;;
2053;SDS011;1032;52.542;13.440;2022-09-06T07:29:15;4.83;;;2.00;;
2053;SDS011;1032;52.542;13.440;2022-09-06T07:31:42;6.30;;;2.43;;
2053;SDS011;1032;52.542;13.440;2022-09-06T07:34:08;6.53;;;2.63;;
2053;SDS011;1032;52.542;13.440;2022-09-06T07:36:35;4.83;;;1.90;;
2053;SDS011;1032;52.542;13.440;2022-09-06T07:39:03;5.23;;;2.93;;
2053;SDS011;1032;52.542;13.440;2022-09-06T07:41:29;7.57;;;3.07;;
2053;SDS011;1032;52.542;13.440;2022-09-06T07:43:56;5.93;;;2.53;;
2053;SDS011;1032;52.542;13.440;2022-09-06T07:46:23;5.30;;;2.50;;
2053;SDS011;1032;52.542;13.440;2022-09-06T07:48:50;4.13;;;2.47;;
2053;SDS011;1032;52.542;13.440;2022-09-06T07:51:17;4.13;;;2.37;;
2053;SDS011;1032;52.542;13.440;2022-09-06T07:53:47;7.30;;;2.50;;
2053;SDS011;1032;52.542;13.440;2022-09-06T07:56:17;5.03;;;3.20;;
2053;SDS011;1032;52.542;13.440;2022-09-06T07:58:45;3.37;;;2.13;;
2053;SDS011;1032;52.542;13.440;2022-09-06T08:01:13;6.17;;;2.10;;
2053;SDS011;1032;52.542;13.440;2022-09-06T08:03:41;10.20;;;2.50;;
2053;SDS011;1032;52.542;13.440;2022-09-06T08:06:07;4.73;;;2.80;;
2053;SDS011;1032;52.542;13.440;2022-09-06T08:08:34;3.00;;;2.23;;
2053;SDS011;1032;52.542;13.440;2022-09-06T08:11:00;5.10;;;2.43;;
2053;SDS011;1032;52.542;13.440;2022-09-06T08:13:29;4.63;;;2.77;;
2053;SDS011;1032;52.542;13.440;2022-09-06T08:15:56;5.47;;;2.30;;
2053;SDS011;1032;52.542;13.440;2022-09-06T08:18:24;13.03;;;3.10;;
2053;SDS011;1032;52.542;13.440;2022-09-06T08:20:51;7.30;;;3.20;;
2053;SDS011;1032;52.542;13.440;2022-09-06T08:23:17;4.60;;;3.20;;
2053;SDS011;1032;52.542;13.440;2022-09-06T08:25:54;3.40;;;2.80;;
2053;SDS011;1032;52.542;13.440;2022-09-06T08:28:21;11.43;;;3.03;;
2053;SDS011;1032;52.542;13.440;2022-09-06T08:30:49;3.50;;;2.60;;
2053;SDS011;1032;52.542;13.440;2022-09-06T08:33:15;6.30;;;2.97;;
2053;SDS011;1032;52.542;13.440;2022-09-06T08:35:52;6.67;;;3.20;;
2053;SDS011;1032;52.542;13.440;2022-09-06T08:38:20;5.30;;;2.70;;
2053;SDS011;1032;52.542;13.440;2022-09-06T08:40:46;5.50;;;2.93;;
2053;SDS011;1032;52.542;13.440;2022-09-06T08:43:13;6.93;;;2.70;;
2053;SDS011;1032;52.542;13.440;2022-09-06T08:45:44;10.27;;;3.27;;
2053;SDS011;1032;52.542;13.440;2022-09-06T08:48:13;10.53;;;2.90;;
2053;SDS011;1032;52.542;13.440;2022-09-06T08:50:41;4.67;;;3.00;;
2053;SDS011;1032;52.542;13.440;2022-09-06T08:53:12;4.80;;;3.33;;
2053;SDS011;1032;52.542;13.440;2022-09-06T08:55:43;8.60;;;3.40;;
2053;SDS011;1032;52.542;13.440;2022-09-06T08:58:23;8.67;;;4.67;;
2053;SDS011;1032;52.542;13.440;2022-09-06T09:00:57;6.60;;;3.73;;
2053;SDS011;1032;52.542;13.440;2022-09-06T09:03:30;5.60;;;3.13;;
2053;SDS011;1032;52.542;13.440;2022-09-06T09:06:00;6.87;;;3.80;;
2053;SDS011;1032;52.542;13.440;2022-09-06T09:08:31;4.10;;;3.00;;
2053;SDS011;1032;52.542;13.440;2022-09-06T09:11:04;7.23;;;3.07;;
2053;SDS011;1032;52.542;13.440;2022-09-06T09:13:34;7.43;;;3.47;;
2053;SDS011;1032;52.542;13.440;2022-09-06T09:16:04;5.90;;;3.30;;
2053;SDS011;1032;52.542;13.440;2022-09-06T09:18:33;6.43;;;3.37;;
2053;SDS011;1032;52.542;13.440;2022-09-06T09:21:04;8.17;;;3.23;;
2053;SDS011;1032;52.542;13.440;2022-09-06T09:23:31;10.97;;;3.37;;
2053;SDS011;1032;52.542;13.440;2022-09-06T09:25:59;14.20;;;3.43;;
2053;SDS011;1032;52.542;13.440;2022-09-06T09:28:29;5.27;;;2.93;;
2053;SDS011;1032;52.542;13.440;2022-09-06T09:30:56;11.20;;;3.70;;
2053;SDS011;1032;52.542;13.440;2022-09-06T09:33:24;6.70;;;3.20;;
2053;SDS011;1032;52.542;13.440;2022-09-06T09:35:54;5.67;;;2.70;;
2053;SDS011;1032;52.542;13.440;2022-09-06T09:38:23;8.03;;;3.77;;
2053;SDS011;1032;52.542;13.440;2022-09-06T09:40:53;9.30;;;3.53;;
2053;SDS011;1032;52.542;13.440;2022-09-06T09:43:22;6.50;;;2.70;;
2053;SDS011;1032;52.542;13.440;2022-09-06T09:46:06;7.20;;;3.17;;
2053;SDS011;1032;52.542;13.440;2022-09-06T09:48:34;6.10;;;3.00;;
2053;SDS011;1032;52.542;13.440;2022-09-06T09:51:15;3.97;;;2.70;;
2053;SDS011;1032;52.542;13.440;2022-09-06T09:53:51;4.40;;;2.90;;
2053;SDS011;1032;52.542;13.440;2022-09-06T09:56:26;8.13;;;3.37;;
2053;SDS011;1032;52.542;13.440;2022-09-06T09:58:55;7.23;;;2.60;;
2053;SDS011;1032;52.542;13.440;2022-09-06T10:01:24;4.63;;;3.20;;
2053;SDS011;1032;52.542;13.440;2022-09-06T10:04:03;10.23;;;3.23;;
2053;SDS011;1032;52.542;13.440;2022-09-06T10:06:33;4.13;;;3.03;;
2053;SDS011;1032;52.542;13.440;2022-09-06T10:09:11;8.07;;;3.37;;
2053;SDS011;1032;52.542;13.440;2022-09-06T10:11:47;10.80;;;3.40;;
2053;SDS011;1032;52.542;13.440;2022-09-06T10:14:26;6.53;;;3.43;;
2053;SDS011;1032;52.542;13.440;2022-09-06T10:16:54;6.87;;;3.00;;
2053;SDS011;1032;52.542;13.440;2022-09-06T10:19:22;5.70;;;3.30;;
2053;SDS011;1032;52.542;13.440;2022-09-06T10:22:07;14.10;;;3.63;;
2053;SDS011;1032;52.542;13.440;2022-09-06T10:24:49;5.00;;;2.97;;
2053;SDS011;1032;52.542;13.440;2022-09-06T10:27:30;15.10;;;3.73;;
2053;SDS011;1032;52.542;13.440;2022-09-06T10:29:59;11.30;;;3.47;;
2053;SDS011;1032;52.542;13.440;2022-09-06T10:32:32;5.13;;;3.27;;
2053;SDS011;1032;52.542;13.440;2022-09-06T10:35:07;10.87;;;3.80;;
2053;SDS011;1032;52.542;13.440;2022-09-06T10:37:45;6.90;;;3.20;;
2053;SDS011;1032;52.542;13.440;2022-09-06T10:40:18;7.13;;;3.80;;
2053;SDS011;1032;52.542;13.440;2022-09-06T10:42:54;7.30;;;3.90;;
2053;SDS011;1032;52.542;13.440;2022-09-06T10:45:27;11.00;;;4.00;;
2053;SDS011;1032;52.542;13.440;2022-09-06T10:48:01;10.70;;;3.00;;
2053;SDS011;1032;52.542;13.440;2022-09-06T10:50:36;9.30;;;4.20;;
2053;SDS011;1032;52.542;13.440;2022-09-06T10:53:13;6.33;;;3.40;;
2053;SDS011;1032;52.542;13.440;2022-09-06T10:55:50;6.93;;;3.77;;
2053;SDS011;1032;52.542;13.440;2022-09-06T10:58:24;6.43;;;2.70;;
2053;SDS011;1032;52.542;13.440;2022-09-06T11:00:54;3.93;;;3.03;;
2053;SDS011;1032;52.542;13.440;2022-09-06T11:03:22;6.10;;;3.37;;
2053;SDS011;1032;52.542;13.440;2022-09-06T11:05:57;2.80;;;2.47;;
2053;SDS011;1032;52.542;13.440;2022-09-06T11:08:30;13.03;;;11.00;;
2053;SDS011;1032;52.542;13.440;2022-09-06T11:11:02;6.23;;;4.07;;
2053;SDS011;1032;52.542;13.440;2022-09-06T11:13:34;6.47;;;3.70;;
2053;SDS011;1032;52.542;13.440;2022-09-06T11:16:02;5.03;;;3.60;;
2053;SDS011;1032;52.542;13.440;2022-09-06T11:18:35;5.43;;;3.70;;
2053;SDS011;1032;52.542;13.440;2022-09-06T11:21:14;9.83;;;3.43;;
2053;SDS011;1032;52.542;13.440;2022-09-06T11:24:08;6.70;;;3.50;;
2053;SDS011;1032;52.542;13.440;2022-09-06T11:26:44;6.23;;;3.77;;
2053;SDS011;1032;52.542;13.440;2022-09-06T11:29:21;4.27;;;2.97;;
2053;SDS011;1032;52.542;13.440;2022-09-06T11:31:51;4.97;;;4.03;;
2053;SDS011;1032;52.542;13.440;2022-09-06T11:34:20;3.73;;;2.93;;
2053;SDS011;1032;52.542;13.440;2022-09-06T11:36:49;5.77;;;3.30;;
2053;SDS011;1032;52.542;13.440;2022-09-06T11:39:25;5.17;;;3.60;;
2053;SDS011;1032;52.542;13.440;2022-09-06T11:41:55;5.17;;;3.23;;
2053;SDS011;1032;52.542;13.440;2022-09-06T11:47:36;7.77;;;3.70;;
2053;SDS011;1032;52.542;13.440;2022-09-06T11:50:24;6.70;;;3.57;;
2053;SDS011;1032;52.542;13.440;2022-09-06T11:53:14;10.93;;;3.40;;
2053;SDS011;1032;52.542;13.440;2022-09-06T11:55:42;7.00;;;3.83;;
2053;SDS011;1032;52.542;13.440;2022-09-06T11:58:18;7.10;;;3.63;;
2053;SDS011;1032;52.542;13.440;2022-09-06T12:04:00;5.00;;;3.37;;
2053;SDS011;1032;52.542;13.440;2022-09-06T12:06:29;8.43;;;3.80;;
2053;SDS011;1032;52.542;13.440;2022-09-06T12:08:59;4.20;;;3.07;;
2053;SDS011;1032;52.542;13.440;2022-09-06T12:11:35;8.18;;;3.60;;
2053;SDS011;1032;52.542;13.440;2022-09-06T12:14:03;5.73;;;3.77;;
2053;SDS011;1032;52.542;13.440;2022-09-06T12:19:50;5.53;;;2.90;;
2053;SDS011;1032;52.542;13.440;2022-09-06T12:25:48;6.37;;;3.93;;
2053;SDS011;1032;52.542;13.440;2022-09-06T12:28:21;4.23;;;3.60;;
2053;SDS011;1032;52.542;13.440;2022-09-06T12:30:58;4.50;;;3.20;;
2053;SDS011;1032;52.542;13.440;2022-09-06T12:33:26;6.50;;;3.30;;
2053;SDS011;1032;52.542;13.440;2022-09-06T12:36:10;6.80;;;3.80;;
2053;SDS011;1032;52.542;13.440;2022-09-06T12:38:38;6.57;;;3.47;;
2053;SDS011;1032;52.542;13.440;2022-09-06T12:41:06;6.17;;;4.13;;
2053;SDS011;1032;52.542;13.440;2022-09-06T12:43:33;7.13;;;3.57;;
2053;SDS011;1032;52.542;13.440;2022-09-06T12:46:04;8.00;;;3.90;;
2053;SDS011;1032;52.542;13.440;2022-09-06T12:48:32;6.90;;;4.07;;
2053;SDS011;1032;52.542;13.440;2022-09-06T12:51:05;6.77;;;4.23;;
2053;SDS011;1032;52.542;13.440;2022-09-06T12:53:37;4.97;;;3.90;;
2053;SDS011;1032;52.542;13.440;2022-09-06T12:56:04;6.63;;;4.10;;
2053;SDS011;1032;52.542;13.440;2022-09-06T12:58:36;6.90;;;4.30;;
2053;SDS011;1032;52.542;13.440;2022-09-06T13:01:06;7.17;;;4.87;;
2053;SDS011;1032;52.542;13.440;2022-09-06T13:03:38;6.63;;;4.40;;
2053;SDS011;1032;52.542;13.440;2022-09-06T13:06:09;10.97;;;4.17;;
2053;SDS011;1032;52.542;13.440;2022-09-06T13:08:45;4.67;;;3.77;;
2053;SDS011;1032;52.542;13.440;2022-09-06T13:11:16;4.80;;;3.60;;
2053;SDS011;1032;52.542;13.440;2022-09-06T13:13:49;4.83;;;3.70;;
2053;SDS011;1032;52.542;13.440;2022-09-06T13:16:18;48.33;;;11.80;;
2053;SDS011;1032;52.542;13.440;2022-09-06T13:18:46;9.23;;;4.00;;
2053;SDS011;1032;52.542;13.440;2022-09-06T13:21:22;4.97;;;3.27;;
2053;SDS011;1032;52.542;13.440;2022-09-06T13:23:50;4.43;;;3.57;;
2053;SDS011;1032;52.542;13.440;2022-09-06T13:26:31;5.80;;;4.40;;
2053;SDS011;1032;52.542;13.440;2022-09-06T13:29:09;5.50;;;4.07;;
2053;SDS011;1032;52.542;13.440;2022-09-06T13:31:37;7.53;;;4.10;;
2053;SDS011;1032;52.542;13.440;2022-09-06T13:34:04;7.90;;;4.30;;
2053;SDS011;1032;52.542;13.440;2022-09-06T13:36:31;5.73;;;4.07;;
2053;SDS011;1032;52.542;13.440;2022-09-06T13:38:59;7.20;;;4.40;;
2053;SDS011;1032;52.542;13.440;2022-09-06T13:41:34;6.22;;;4.70;;
2053;SDS011;1032;52.542;13.440;2022-09-06T13:44:05;7.83;;;4.03;;
2053;SDS011;1032;52.542;13.440;2022-09-06T13:46:42;7.40;;;3.90;;
2053;SDS011;1032;52.542;13.440;2022-09-06T13:49:09;4.77;;;4.20;;
2053;SDS011;1032;52.542;13.440;2022-09-06T13:51:36;6.65;;;4.63;;
2053;SDS011;1032;52.542;13.440;2022-09-06T13:54:04;6.00;;;4.50;;
2053;SDS011;1032;52.542;13.440;2022-09-06T13:56:31;5.93;;;4.50;;
2053;SDS011;1032;52.542;13.440;2022-09-06T13:59:00;7.97;;;4.60;;
2053;SDS011;1032;52.542;13.440;2022-09-06T14:01:27;7.97;;;4.50;;
2053;SDS011;1032;52.542;13.440;2022-09-06T14:03:54;8.20;;;4.20;;
2053;SDS011;1032;52.542;13.440;2022-09-06T14:06:21;4.90;;;4.23;;
2053;SDS011;1032;52.542;13.440;2022-09-06T14:08:48;7.60;;;5.00;;
2053;SDS011;1032;52.542;13.440;2022-09-06T14:11:14;7.40;;;4.73;;
2053;SDS011;1032;52.542;13.440;2022-09-06T14:13:42;5.63;;;4.30;;
2053;SDS011;1032;52.542;13.440;2022-09-06T14:16:09;4.40;;;4.10;;
2053;SDS011;1032;52.542;13.440;2022-09-06T14:18:36;8.80;;;4.03;;
2053;SDS011;1032;52.542;13.440;2022-09-06T14:21:04;4.93;;;3.83;;
2053;SDS011;1032;52.542;13.440;2022-09-06T14:23:31;9.13;;;4.50;;
2053;SDS011;1032;52.542;13.440;2022-09-06T14:25:59;4.43;;;4.00;;
2053;SDS011;1032;52.542;13.440;2022-09-06T14:28:27;7.60;;;5.20;;
2053;SDS011;1032;52.542;13.440;2022-09-06T14:30:56;6.30;;;5.00;;
2053;SDS011;1032;52.542;13.440;2022-09-06T14:33:23;5.27;;;4.00;;
2053;SDS011;1032;52.542;13.440;2022-09-06T14:35:50;6.27;;;4.70;;
2053;SDS011;1032;52.542;13.440;2022-09-06T14:38:17;4.83;;;4.33;;
2053;SDS011;1032;52.542;13.440;2022-09-06T14:40:43;5.27;;;4.60;;
2053;SDS011;1032;52.542;13.440;2022-09-06T14:43:10;5.77;;;4.20;;
2053;SDS011;1032;52.542;13.440;2022-09-06T14:45:37;6.10;;;4.67;;
2053;SDS011;1032;52.542;13.440;2022-09-06T14:48:05;8.17;;;4.37;;
2053;SDS011;1032;52.542;13.440;2022-09-06T14:50:31;7.07;;;5.70;;
2053;SDS011;1032;52.542;13.440;2022-09-06T14:52:58;8.87;;;4.70;;
2053;SDS011;1032;52.542;13.440;2022-09-06T14:55:25;4.70;;;3.97;;
2053;SDS011;1032;52.542;13.440;2022-09-06T14:57:52;5.20;;;3.80;;
2053;SDS011;1032;52.542;13.440;2022-09-06T15:00:19;6.10;;;3.83;;
2053;SDS011;1032;52.542;13.440;2022-09-06T15:02:46;5.10;;;4.40;;
2053;SDS011;1032;52.542;13.440;2022-09-06T15:05:14;13.03;;;10.33;;
2053;SDS011;1032;52.542;13.440;2022-09-06T15:07:41;11.00;;;10.00;;
2053;SDS011;1032;52.542;13.440;2022-09-06T15:10:08;8.90;;;6.90;;
2053;SDS011;1032;52.542;13.440;2022-09-06T15:12:34;7.40;;;5.27;;
2053;SDS011;1032;52.542;13.440;2022-09-06T15:15:02;6.23;;;4.40;;
2053;SDS011;1032;52.542;13.440;2022-09-06T15:17:29;7.07;;;4.00;;
2053;SDS011;1032;52.542;13.440;2022-09-06T15:19:58;5.73;;;4.63;;
2053;SDS011;1032;52.542;13.440;2022-09-06T15:22:26;5.40;;;4.13;;
2053;SDS011;1032;52.542;13.440;2022-09-06T15:24:52;7.20;;;4.50;;
2053;SDS011;1032;52.542;13.440;2022-09-06T15:27:19;5.07;;;4.57;;